sensor_id;sensor_type;location;lat;lon;timestamp;temperature;humidity
33428;DHT22;19769;48.150;16.306;2023-02-28T00:01:31;3.10;91.70
33428;DHT22;19769;48.150;16.306;2023-02-28T00:03:57;3.20;91.90
33428;DHT22;19769;48.150;16.306;2023-02-28T00:06:23;3.20;92.00
33428;DHT22;19769;48.150;16.306;2023-02-28T00:08:49;3.10;92.10
33428;DHT22;19769;48.150;16.306;2023-02-28T00:11:15;3.10;92.00
33428;DHT22;19769;48.150;16.306;2023-02-28T00:13:42;3.10;91.60
33428;DHT22;19769;48.150;16.306;2023-02-28T00:16:09;3.10;92.00
33428;DHT22;19769;48.150;16.306;2023-02-28T00:18:36;3.10;92.00
33428;DHT22;19769;48.150;16.306;2023-02-28T00:21:01;3.10;92.20
33428;DHT22;19769;48.150;16.306;2023-02-28T00:23:27;3.10;92.10
33428;DHT22;19769;48.150;16.306;2023-02-28T00:25:53;3.10;92.20
33428;DHT22;19769;48.150;16.306;2023-02-28T00:28:19;3.10;92.20
33428;DHT22;19769;48.150;16.306;2023-02-28T00:30:44;3.10;92.30
33428;DHT22;19769;48.150;16.306;2023-02-28T00:33:10;3.00;91.90
33428;DHT22;19769;48.150;16.306;2023-02-28T00:35:36;3.00;91.90
33428;DHT22;19769;48.150;16.306;2023-02-28T00:38:01;3.00;92.10
33428;DHT22;19769;48.150;16.306;2023-02-28T00:40:27;3.00;92.30
33428;DHT22;19769;48.150;16.306;2023-02-28T00:42:53;3.00;92.10
33428;DHT22;19769;48.150;16.306;2023-02-28T00:45:19;3.00;92.10
33428;DHT22;19769;48.150;16.306;2023-02-28T00:47:44;3.00;91.90
33428;DHT22;19769;48.150;16.306;2023-02-28T00:50:12;2.90;91.90
33428;DHT22;19769;48.150;16.306;2023-02-28T00:52:37;2.90;92.50
33428;DHT22;19769;48.150;16.306;2023-02-28T00:55:03;2.80;92.40
33428;DHT22;19769;48.150;16.306;2023-02-28T00:57:29;2.90;92.50
33428;DHT22;19769;48.150;16.306;2023-02-28T00:59:55;2.90;92.40
33428;DHT22;19769;48.150;16.306;2023-02-28T01:02:21;2.90;92.40
33428;DHT22;19769;48.150;16.306;2023-02-28T01:04:47;3.00;92.40
33428;DHT22;19769;48.150;16.306;2023-02-28T01:07:13;3.00;92.30
33428;DHT22;19769;48.150;16.306;2023-02-28T01:09:40;3.10;92.40
33428;DHT22;19769;48.150;16.306;2023-02-28T01:12:06;3.10;92.60
33428;DHT22;19769;48.150;16.306;2023-02-28T01:14:32;3.10;92.90
33428;DHT22;19769;48.150;16.306;2023-02-28T01:16:58;3.10;92.70
33428;DHT22;19769;48.150;16.306;2023-02-28T01:19:24;3.20;92.10
33428;DHT22;19769;48.150;16.306;2023-02-28T01:21:50;3.20;92.00
33428;DHT22;19769;48.150;16.306;2023-02-28T01:24:15;3.20;91.70
33428;DHT22;19769;48.150;16.306;2023-02-28T01:26:41;3.20;91.70
33428;DHT22;19769;48.150;16.306;2023-02-28T01:29:07;3.30;91.90
33428;DHT22;19769;48.150;16.306;2023-02-28T01:31:32;3.30;91.70
33428;DHT22;19769;48.150;16.306;2023-02-28T01:33:58;3.30;91.80
33428;DHT22;19769;48.150;16.306;2023-02-28T01:36:27;3.30;91.40
33428;DHT22;19769;48.150;16.306;2023-02-28T01:38:55;3.30;91.50
33428;DHT22;19769;48.150;16.306;2023-02-28T01:41:25;3.30;91.40
33428;DHT22;19769;48.150;16.306;2023-02-28T01:43:54;3.20;91.50
33428;DHT22;19769;48.150;16.306;2023-02-28T01:46:20;3.30;91.40
33428;DHT22;19769;48.150;16.306;2023-02-28T01:48:48;3.30;91.10
33428;DHT22;19769;48.150;16.306;2023-02-28T01:52:01;3.30;91.40
33428;DHT22;19769;48.150;16.306;2023-02-28T01:54:05;3.30;91.30
33428;DHT22;19769;48.150;16.306;2023-02-28T01:56:40;3.30;91.50
33428;DHT22;19769;48.150;16.306;2023-02-28T01:59:07;3.30;91.70
33428;DHT22;19769;48.150;16.306;2023-02-28T02:01:32;3.30;91.70
33428;DHT22;19769;48.150;16.306;2023-02-28T02:04:01;3.40;91.80
33428;DHT22;19769;48.150;16.306;2023-02-28T02:09:22;3.30;91.40
33428;DHT22;19769;48.150;16.306;2023-02-28T02:11:48;3.30;91.30
33428;DHT22;19769;48.150;16.306;2023-02-28T02:14:38;3.40;91.20
33428;DHT22;19769;48.150;16.306;2023-02-28T02:17:20;3.40;91.10
33428;DHT22;19769;48.150;16.306;2023-02-28T02:24:58;3.40;90.50
33428;DHT22;19769;48.150;16.306;2023-02-28T02:32:59;3.40;90.60
33428;DHT22;19769;48.150;16.306;2023-02-28T02:41:08;3.40;90.60
33428;DHT22;19769;48.150;16.306;2023-02-28T02:46:33;3.30;90.70
33428;DHT22;19769;48.150;16.306;2023-02-28T02:49:00;3.30;90.70
33428;DHT22;19769;48.150;16.306;2023-02-28T02:51:29;3.30;90.80
33428;DHT22;19769;48.150;16.306;2023-02-28T02:54:04;3.30;90.90
33428;DHT22;19769;48.150;16.306;2023-02-28T02:56:32;3.40;90.80
33428;DHT22;19769;48.150;16.306;2023-02-28T02:59:01;3.30;90.60
33428;DHT22;19769;48.150;16.306;2023-02-28T03:01:27;3.30;90.70
33428;DHT22;19769;48.150;16.306;2023-02-28T03:03:55;3.30;91.10
33428;DHT22;19769;48.150;16.306;2023-02-28T03:06:21;3.20;91.30
33428;DHT22;19769;48.150;16.306;2023-02-28T03:08:47;3.20;91.50
33428;DHT22;19769;48.150;16.306;2023-02-28T03:11:13;3.10;91.30
33428;DHT22;19769;48.150;16.306;2023-02-28T03:19:19;3.00;91.40
33428;DHT22;19769;48.150;16.306;2023-02-28T03:26:46;2.80;92.10
33428;DHT22;19769;48.150;16.306;2023-02-28T03:29:19;2.80;92.40
33428;DHT22;19769;48.150;16.306;2023-02-28T03:31:52;2.80;92.60
33428;DHT22;19769;48.150;16.306;2023-02-28T03:34:38;2.70;92.50
33428;DHT22;19769;48.150;16.306;2023-02-28T03:37:07;2.70;92.70
33428;DHT22;19769;48.150;16.306;2023-02-28T03:39:36;2.60;92.90
33428;DHT22;19769;48.150;16.306;2023-02-28T03:42:14;2.70;92.60
33428;DHT22;19769;48.150;16.306;2023-02-28T03:44:42;2.60;92.40
33428;DHT22;19769;48.150;16.306;2023-02-28T03:47:10;2.60;92.60
33428;DHT22;19769;48.150;16.306;2023-02-28T03:49:54;2.60;92.90
33428;DHT22;19769;48.150;16.306;2023-02-28T03:52:24;2.60;92.90
33428;DHT22;19769;48.150;16.306;2023-02-28T03:54:52;2.60;93.00
33428;DHT22;19769;48.150;16.306;2023-02-28T03:57:26;2.70;92.90
33428;DHT22;19769;48.150;16.306;2023-02-28T04:00:04;2.60;93.00
33428;DHT22;19769;48.150;16.306;2023-02-28T04:02:37;2.60;93.00
33428;DHT22;19769;48.150;16.306;2023-02-28T04:05:05;2.70;92.70
33428;DHT22;19769;48.150;16.306;2023-02-28T04:07:31;2.70;92.90
33428;DHT22;19769;48.150;16.306;2023-02-28T04:09:57;2.70;93.00
33428;DHT22;19769;48.150;16.306;2023-02-28T04:12:22;2.70;92.70
33428;DHT22;19769;48.150;16.306;2023-02-28T04:14:49;2.80;93.00
33428;DHT22;19769;48.150;16.306;2023-02-28T04:17:15;2.70;93.10
33428;DHT22;19769;48.150;16.306;2023-02-28T04:19:41;2.80;93.40
33428;DHT22;19769;48.150;16.306;2023-02-28T04:22:07;2.80;93.50
33428;DHT22;19769;48.150;16.306;2023-02-28T04:24:33;2.70;93.50
33428;DHT22;19769;48.150;16.306;2023-02-28T04:26:59;2.70;93.50
33428;DHT22;19769;48.150;16.306;2023-02-28T04:29:28;2.80;93.30
33428;DHT22;19769;48.150;16.306;2023-02-28T04:31:55;2.80;93.40
33428;DHT22;19769;48.150;16.306;2023-02-28T04:34:24;2.80;93.50
33428;DHT22;19769;48.150;16.306;2023-02-28T04:36:51;2.80;93.30
33428;DHT22;19769;48.150;16.306;2023-02-28T04:39:19;2.80;93.10
33428;DHT22;19769;48.150;16.306;2023-02-28T04:41:45;2.90;92.90
33428;DHT22;19769;48.150;16.306;2023-02-28T04:44:11;2.90;92.90
33428;DHT22;19769;48.150;16.306;2023-02-28T04:46:36;2.90;93.10
33428;DHT22;19769;48.150;16.306;2023-02-28T04:49:02;2.90;93.00
33428;DHT22;19769;48.150;16.306;2023-02-28T04:51:28;2.90;92.60
33428;DHT22;19769;48.150;16.306;2023-02-28T04:53:54;2.80;92.90
33428;DHT22;19769;48.150;16.306;2023-02-28T04:56:20;2.80;93.00
33428;DHT22;19769;48.150;16.306;2023-02-28T04:58:46;2.90;93.10
33428;DHT22;19769;48.150;16.306;2023-02-28T05:03:40;2.80;93.40
33428;DHT22;19769;48.150;16.306;2023-02-28T05:06:07;2.70;93.20
33428;DHT22;19769;48.150;16.306;2023-02-28T05:08:33;2.60;93.80
33428;DHT22;19769;48.150;16.306;2023-02-28T05:10:58;2.60;94.00
33428;DHT22;19769;48.150;16.306;2023-02-28T05:13:26;2.70;94.10
33428;DHT22;19769;48.150;16.306;2023-02-28T05:15:52;2.70;94.20
33428;DHT22;19769;48.150;16.306;2023-02-28T05:18:17;2.70;94.30
33428;DHT22;19769;48.150;16.306;2023-02-28T05:20:43;2.70;94.10
33428;DHT22;19769;48.150;16.306;2023-02-28T05:23:12;2.60;94.20
33428;DHT22;19769;48.150;16.306;2023-02-28T05:25:38;2.60;94.40
33428;DHT22;19769;48.150;16.306;2023-02-28T05:28:04;2.60;94.50
33428;DHT22;19769;48.150;16.306;2023-02-28T05:30:30;2.50;94.70
33428;DHT22;19769;48.150;16.306;2023-02-28T05:32:57;2.50;94.80
33428;DHT22;19769;48.150;16.306;2023-02-28T05:35:23;2.50;94.90
33428;DHT22;19769;48.150;16.306;2023-02-28T05:37:49;2.50;95.10
33428;DHT22;19769;48.150;16.306;2023-02-28T05:40:15;2.50;95.30
33428;DHT22;19769;48.150;16.306;2023-02-28T05:42:41;2.40;95.30
33428;DHT22;19769;48.150;16.306;2023-02-28T05:45:07;2.40;95.50
33428;DHT22;19769;48.150;16.306;2023-02-28T05:47:33;2.40;95.90
33428;DHT22;19769;48.150;16.306;2023-02-28T05:49:59;2.40;95.90
33428;DHT22;19769;48.150;16.306;2023-02-28T05:52:25;2.50;96.20
33428;DHT22;19769;48.150;16.306;2023-02-28T05:54:51;2.50;96.60
33428;DHT22;19769;48.150;16.306;2023-02-28T05:57:16;2.50;96.90
33428;DHT22;19769;48.150;16.306;2023-02-28T05:59:42;2.40;96.60
33428;DHT22;19769;48.150;16.306;2023-02-28T06:02:15;2.50;96.60
33428;DHT22;19769;48.150;16.306;2023-02-28T06:04:42;2.50;96.50
33428;DHT22;19769;48.150;16.306;2023-02-28T06:07:08;2.50;96.40
33428;DHT22;19769;48.150;16.306;2023-02-28T06:09:34;2.50;96.90
33428;DHT22;19769;48.150;16.306;2023-02-28T06:12:00;2.50;97.10
33428;DHT22;19769;48.150;16.306;2023-02-28T06:14:27;2.50;97.20
33428;DHT22;19769;48.150;16.306;2023-02-28T06:16:53;2.50;97.40
33428;DHT22;19769;48.150;16.306;2023-02-28T06:19:18;2.60;97.70
33428;DHT22;19769;48.150;16.306;2023-02-28T06:21:44;2.60;98.10
33428;DHT22;19769;48.150;16.306;2023-02-28T06:24:10;2.50;98.00
33428;DHT22;19769;48.150;16.306;2023-02-28T06:26:36;2.50;98.10
33428;DHT22;19769;48.150;16.306;2023-02-28T06:29:02;2.60;98.10
33428;DHT22;19769;48.150;16.306;2023-02-28T06:31:28;2.60;98.50
33428;DHT22;19769;48.150;16.306;2023-02-28T06:33:54;2.60;98.80
33428;DHT22;19769;48.150;16.306;2023-02-28T06:36:20;2.80;98.40
33428;DHT22;19769;48.150;16.306;2023-02-28T06:38:46;2.80;98.40
33428;DHT22;19769;48.150;16.306;2023-02-28T06:41:16;2.70;98.60
33428;DHT22;19769;48.150;16.306;2023-02-28T06:43:43;2.80;98.70
33428;DHT22;19769;48.150;16.306;2023-02-28T06:46:11;2.80;98.50
33428;DHT22;19769;48.150;16.306;2023-02-28T06:48:37;2.90;98.40
33428;DHT22;19769;48.150;16.306;2023-02-28T06:51:04;3.00;98.30
33428;DHT22;19769;48.150;16.306;2023-02-28T06:53:30;3.10;98.20
33428;DHT22;19769;48.150;16.306;2023-02-28T06:55:56;3.10;98.10
33428;DHT22;19769;48.150;16.306;2023-02-28T06:58:22;3.10;98.10
33428;DHT22;19769;48.150;16.306;2023-02-28T07:00:50;3.20;98.10
33428;DHT22;19769;48.150;16.306;2023-02-28T07:03:16;3.20;98.30
33428;DHT22;19769;48.150;16.306;2023-02-28T07:05:42;3.10;97.70
33428;DHT22;19769;48.150;16.306;2023-02-28T07:08:08;3.10;97.80
33428;DHT22;19769;48.150;16.306;2023-02-28T07:10:34;3.10;97.40
33428;DHT22;19769;48.150;16.306;2023-02-28T07:13:02;3.10;98.20
33428;DHT22;19769;48.150;16.306;2023-02-28T07:15:28;3.30;98.20
33428;DHT22;19769;48.150;16.306;2023-02-28T07:17:54;3.40;97.60
33428;DHT22;19769;48.150;16.306;2023-02-28T07:20:20;3.50;97.20
33428;DHT22;19769;48.150;16.306;2023-02-28T07:22:45;3.60;96.80
33428;DHT22;19769;48.150;16.306;2023-02-28T07:25:11;3.70;96.50
33428;DHT22;19769;48.150;16.306;2023-02-28T07:27:37;3.80;96.70
33428;DHT22;19769;48.150;16.306;2023-02-28T07:30:03;4.00;96.10
33428;DHT22;19769;48.150;16.306;2023-02-28T07:32:29;4.00;96.10
33428;DHT22;19769;48.150;16.306;2023-02-28T07:34:54;3.90;95.70
33428;DHT22;19769;48.150;16.306;2023-02-28T07:37:20;4.00;96.10
33428;DHT22;19769;48.150;16.306;2023-02-28T07:39:46;4.00;95.70
33428;DHT22;19769;48.150;16.306;2023-02-28T07:42:12;4.10;95.00
33428;DHT22;19769;48.150;16.306;2023-02-28T07:44:39;4.10;94.80
33428;DHT22;19769;48.150;16.306;2023-02-28T07:47:06;4.10;94.30
33428;DHT22;19769;48.150;16.306;2023-02-28T07:49:32;4.20;93.90
33428;DHT22;19769;48.150;16.306;2023-02-28T07:51:58;4.20;93.80
33428;DHT22;19769;48.150;16.306;2023-02-28T07:54:23;4.30;93.90
33428;DHT22;19769;48.150;16.306;2023-02-28T07:56:49;4.30;93.80
33428;DHT22;19769;48.150;16.306;2023-02-28T07:59:15;4.40;93.80
33428;DHT22;19769;48.150;16.306;2023-02-28T08:01:40;4.60;94.20
33428;DHT22;19769;48.150;16.306;2023-02-28T08:04:06;4.70;93.30
33428;DHT22;19769;48.150;16.306;2023-02-28T08:06:32;4.80;93.70
33428;DHT22;19769;48.150;16.306;2023-02-28T08:08:57;4.90;93.40
33428;DHT22;19769;48.150;16.306;2023-02-28T08:11:23;5.10;92.90
33428;DHT22;19769;48.150;16.306;2023-02-28T08:13:49;5.30;92.30
33428;DHT22;19769;48.150;16.306;2023-02-28T08:16:14;5.40;92.10
33428;DHT22;19769;48.150;16.306;2023-02-28T08:18:43;5.60;92.50
33428;DHT22;19769;48.150;16.306;2023-02-28T08:21:09;5.80;91.10
33428;DHT22;19769;48.150;16.306;2023-02-28T08:23:35;5.80;90.20
33428;DHT22;19769;48.150;16.306;2023-02-28T08:26:01;5.90;90.40
33428;DHT22;19769;48.150;16.306;2023-02-28T08:30:53;5.90;89.90
33428;DHT22;19769;48.150;16.306;2023-02-28T08:33:19;6.60;88.60
33428;DHT22;19769;48.150;16.306;2023-02-28T08:35:45;6.70;85.90
33428;DHT22;19769;48.150;16.306;2023-02-28T08:38:11;7.00;85.10
33428;DHT22;19769;48.150;16.306;2023-02-28T08:40:36;7.40;82.90
33428;DHT22;19769;48.150;16.306;2023-02-28T08:43:02;7.70;79.10
33428;DHT22;19769;48.150;16.306;2023-02-28T08:45:28;8.20;77.30
33428;DHT22;19769;48.150;16.306;2023-02-28T08:47:54;8.60;76.30
33428;DHT22;19769;48.150;16.306;2023-02-28T08:50:20;9.00;73.60
33428;DHT22;19769;48.150;16.306;2023-02-28T08:52:45;9.30;71.70
33428;DHT22;19769;48.150;16.306;2023-02-28T08:55:11;9.50;68.90
33428;DHT22;19769;48.150;16.306;2023-02-28T08:57:37;9.80;68.60
33428;DHT22;19769;48.150;16.306;2023-02-28T09:00:03;10.20;66.90
33428;DHT22;19769;48.150;16.306;2023-02-28T09:02:32;10.50;64.80
33428;DHT22;19769;48.150;16.306;2023-02-28T09:04:58;10.90;64.40
33428;DHT22;19769;48.150;16.306;2023-02-28T09:07:24;11.20;70.30
33428;DHT22;19769;48.150;16.306;2023-02-28T09:09:50;11.60;76.10
33428;DHT22;19769;48.150;16.306;2023-02-28T09:12:20;11.80;62.50
33428;DHT22;19769;48.150;16.306;2023-02-28T09:14:45;12.10;59.50
33428;DHT22;19769;48.150;16.306;2023-02-28T09:17:11;12.40;57.50
33428;DHT22;19769;48.150;16.306;2023-02-28T09:19:37;12.60;57.60
33428;DHT22;19769;48.150;16.306;2023-02-28T09:22:02;12.90;57.20
33428;DHT22;19769;48.150;16.306;2023-02-28T09:24:28;13.30;55.90
33428;DHT22;19769;48.150;16.306;2023-02-28T09:26:54;13.60;54.20
33428;DHT22;19769;48.150;16.306;2023-02-28T09:29:19;13.90;55.50
33428;DHT22;19769;48.150;16.306;2023-02-28T09:31:45;14.00;52.60
33428;DHT22;19769;48.150;16.306;2023-02-28T09:34:11;14.10;52.50
33428;DHT22;19769;48.150;16.306;2023-02-28T09:36:37;14.00;51.90
33428;DHT22;19769;48.150;16.306;2023-02-28T09:39:03;14.10;52.00
33428;DHT22;19769;48.150;16.306;2023-02-28T09:41:29;13.90;51.50
33428;DHT22;19769;48.150;16.306;2023-02-28T09:43:59;13.70;52.80
33428;DHT22;19769;48.150;16.306;2023-02-28T09:48:53;12.60;52.80
33428;DHT22;19769;48.150;16.306;2023-02-28T09:53:49;11.90;54.90
33428;DHT22;19769;48.150;16.306;2023-02-28T09:56:20;11.40;55.00
33428;DHT22;19769;48.150;16.306;2023-02-28T10:01:21;10.80;56.80
33428;DHT22;19769;48.150;16.306;2023-02-28T10:03:56;10.70;56.90
33428;DHT22;19769;48.150;16.306;2023-02-28T10:06:23;10.60;57.50
33428;DHT22;19769;48.150;16.306;2023-02-28T10:09:01;10.70;57.70
33428;DHT22;19769;48.150;16.306;2023-02-28T10:11:28;11.10;58.20
33428;DHT22;19769;48.150;16.306;2023-02-28T10:16:31;11.70;56.80
33428;DHT22;19769;48.150;16.306;2023-02-28T10:19:01;12.10;55.80
33428;DHT22;19769;48.150;16.306;2023-02-28T10:21:35;12.50;55.10
33428;DHT22;19769;48.150;16.306;2023-02-28T10:24:11;13.00;54.30
33428;DHT22;19769;48.150;16.306;2023-02-28T10:26:39;13.80;56.40
33428;DHT22;19769;48.150;16.306;2023-02-28T10:29:07;14.70;52.30
33428;DHT22;19769;48.150;16.306;2023-02-28T10:31:35;15.30;52.00
33428;DHT22;19769;48.150;16.306;2023-02-28T10:34:00;15.90;54.70
33428;DHT22;19769;48.150;16.306;2023-02-28T10:36:27;16.60;55.30
33428;DHT22;19769;48.150;16.306;2023-02-28T10:38:53;17.20;46.70
33428;DHT22;19769;48.150;16.306;2023-02-28T10:41:30;17.70;45.60
33428;DHT22;19769;48.150;16.306;2023-02-28T10:44:13;17.90;43.70
33428;DHT22;19769;48.150;16.306;2023-02-28T10:46:39;17.60;42.30
33428;DHT22;19769;48.150;16.306;2023-02-28T10:49:06;17.60;43.00
33428;DHT22;19769;48.150;16.306;2023-02-28T10:51:38;18.10;43.40
33428;DHT22;19769;48.150;16.306;2023-02-28T10:54:04;18.50;41.00
33428;DHT22;19769;48.150;16.306;2023-02-28T10:56:31;18.40;40.30
33428;DHT22;19769;48.150;16.306;2023-02-28T11:01:34;17.90;41.90
33428;DHT22;19769;48.150;16.306;2023-02-28T11:04:00;17.70;41.00
33428;DHT22;19769;48.150;16.306;2023-02-28T11:06:30;17.50;41.30
33428;DHT22;19769;48.150;16.306;2023-02-28T11:08:57;17.70;40.10
33428;DHT22;19769;48.150;16.306;2023-02-28T11:11:24;18.40;40.10
33428;DHT22;19769;48.150;16.306;2023-02-28T11:13:58;20.20;38.30
33428;DHT22;19769;48.150;16.306;2023-02-28T11:45:52;23.40;28.70
33428;DHT22;19769;48.150;16.306;2023-02-28T11:48:21;21.50;30.70
33428;DHT22;19769;48.150;16.306;2023-02-28T11:51:11;19.60;33.10
33428;DHT22;19769;48.150;16.306;2023-02-28T11:56:15;15.20;40.10
33428;DHT22;19769;48.150;16.306;2023-02-28T11:58:55;13.30;42.80
33428;DHT22;19769;48.150;16.306;2023-02-28T12:06:47;11.10;49.70
33428;DHT22;19769;48.150;16.306;2023-02-28T12:09:31;10.80;49.20
33428;DHT22;19769;48.150;16.306;2023-02-28T12:12:01;10.70;49.60
33428;DHT22;19769;48.150;16.306;2023-02-28T12:22:29;19.20;40.10
33428;DHT22;19769;48.150;16.306;2023-02-28T12:27:22;18.60;36.50
33428;DHT22;19769;48.150;16.306;2023-02-28T12:29:50;17.50;37.20
33428;DHT22;19769;48.150;16.306;2023-02-28T12:35:03;17.50;38.00
33428;DHT22;19769;48.150;16.306;2023-02-28T12:37:36;17.30;37.40
33428;DHT22;19769;48.150;16.306;2023-02-28T12:40:11;15.80;38.60
33428;DHT22;19769;48.150;16.306;2023-02-28T12:42:39;14.40;41.30
33428;DHT22;19769;48.150;16.306;2023-02-28T12:45:10;13.50;43.20
33428;DHT22;19769;48.150;16.306;2023-02-28T12:47:38;12.80;44.80
33428;DHT22;19769;48.150;16.306;2023-02-28T12:50:07;12.30;45.20
33428;DHT22;19769;48.150;16.306;2023-02-28T13:00:10;19.10;37.10
33428;DHT22;19769;48.150;16.306;2023-02-28T13:07:51;19.20;34.60
33428;DHT22;19769;48.150;16.306;2023-02-28T13:10:19;20.90;32.60
33428;DHT22;19769;48.150;16.306;2023-02-28T13:12:54;23.20;30.50
33428;DHT22;19769;48.150;16.306;2023-02-28T13:15:26;24.70;28.70
33428;DHT22;19769;48.150;16.306;2023-02-28T13:17:57;24.10;28.10
33428;DHT22;19769;48.150;16.306;2023-02-28T13:20:34;21.70;29.50
33428;DHT22;19769;48.150;16.306;2023-02-28T13:23:00;19.10;32.20
33428;DHT22;19769;48.150;16.306;2023-02-28T13:28:03;15.50;37.40
33428;DHT22;19769;48.150;16.306;2023-02-28T13:41:48;11.40;45.40
33428;DHT22;19769;48.150;16.306;2023-02-28T13:44:05;11.20;45.90
33428;DHT22;19769;48.150;16.306;2023-02-28T13:46:32;10.90;46.50
33428;DHT22;19769;48.150;16.306;2023-02-28T13:51:43;10.40;47.50
33428;DHT22;19769;48.150;16.306;2023-02-28T13:54:21;10.30;48.10
33428;DHT22;19769;48.150;16.306;2023-02-28T14:05:05;11.00;48.80
33428;DHT22;19769;48.150;16.306;2023-02-28T14:07:33;13.40;45.10
33428;DHT22;19769;48.150;16.306;2023-02-28T14:10:06;13.60;42.50
33428;DHT22;19769;48.150;16.306;2023-02-28T14:15:25;16.60;39.30
33428;DHT22;19769;48.150;16.306;2023-02-28T14:17:55;18.90;35.20
33428;DHT22;19769;48.150;16.306;2023-02-28T14:20:21;18.60;34.50
33428;DHT22;19769;48.150;16.306;2023-02-28T14:23:08;20.00;33.90
33428;DHT22;19769;48.150;16.306;2023-02-28T14:25:38;22.10;31.40
33428;DHT22;19769;48.150;16.306;2023-02-28T14:28:19;24.40;29.70
33428;DHT22;19769;48.150;16.306;2023-02-28T14:33:31;27.50;26.80
33428;DHT22;19769;48.150;16.306;2023-02-28T14:36:03;27.80;25.90
33428;DHT22;19769;48.150;16.306;2023-02-28T14:38:31;28.10;25.70
33428;DHT22;19769;48.150;16.306;2023-02-28T14:40:58;26.60;25.60
33428;DHT22;19769;48.150;16.306;2023-02-28T14:43:26;23.30;27.40
33428;DHT22;19769;48.150;16.306;2023-02-28T14:45:55;20.00;30.00
33428;DHT22;19769;48.150;16.306;2023-02-28T14:48:22;17.30;33.60
33428;DHT22;19769;48.150;16.306;2023-02-28T14:50:53;15.40;36.60
33428;DHT22;19769;48.150;16.306;2023-02-28T14:53:19;15.80;37.50
33428;DHT22;19769;48.150;16.306;2023-02-28T14:55:46;17.20;35.70
33428;DHT22;19769;48.150;16.306;2023-02-28T14:58:23;16.70;36.00
33428;DHT22;19769;48.150;16.306;2023-02-28T15:00:50;15.10;37.60
33428;DHT22;19769;48.150;16.306;2023-02-28T15:03:21;13.40;40.30
33428;DHT22;19769;48.150;16.306;2023-02-28T15:05:58;11.90;42.70
33428;DHT22;19769;48.150;16.306;2023-02-28T15:08:24;11.10;45.10
33428;DHT22;19769;48.150;16.306;2023-02-28T15:10:54;10.50;46.50
33428;DHT22;19769;48.150;16.306;2023-02-28T15:13:20;10.10;47.20
33428;DHT22;19769;48.150;16.306;2023-02-28T15:18:18;9.70;48.20
33428;DHT22;19769;48.150;16.306;2023-02-28T15:20:47;9.60;48.60
33428;DHT22;19769;48.150;16.306;2023-02-28T15:23:13;9.50;48.70
33428;DHT22;19769;48.150;16.306;2023-02-28T15:25:39;9.40;49.60
33428;DHT22;19769;48.150;16.306;2023-02-28T15:28:09;9.30;49.30
33428;DHT22;19769;48.150;16.306;2023-02-28T15:30:36;9.20;49.40
33428;DHT22;19769;48.150;16.306;2023-02-28T15:33:21;9.10;49.60
33428;DHT22;19769;48.150;16.306;2023-02-28T15:35:47;9.00;50.40
33428;DHT22;19769;48.150;16.306;2023-02-28T15:38:18;9.00;50.90
33428;DHT22;19769;48.150;16.306;2023-02-28T15:40:56;9.60;50.20
33428;DHT22;19769;48.150;16.306;2023-02-28T15:43:29;11.50;48.00
33428;DHT22;19769;48.150;16.306;2023-02-28T15:46:02;13.70;44.00
33428;DHT22;19769;48.150;16.306;2023-02-28T15:48:33;15.10;41.20
33428;DHT22;19769;48.150;16.306;2023-02-28T15:51:06;15.20;39.70
33428;DHT22;19769;48.150;16.306;2023-02-28T15:53:33;14.10;40.80
33428;DHT22;19769;48.150;16.306;2023-02-28T15:56:02;12.80;42.70
33428;DHT22;19769;48.150;16.306;2023-02-28T15:58:28;11.60;44.80
33428;DHT22;19769;48.150;16.306;2023-02-28T16:01:03;10.70;46.30
33428;DHT22;19769;48.150;16.306;2023-02-28T16:03:44;10.00;47.70
33428;DHT22;19769;48.150;16.306;2023-02-28T16:08:42;9.00;50.30
33428;DHT22;19769;48.150;16.306;2023-02-28T16:11:08;8.70;51.00
33428;DHT22;19769;48.150;16.306;2023-02-28T16:13:35;8.50;51.50
33428;DHT22;19769;48.150;16.306;2023-02-28T16:16:01;8.30;52.20
33428;DHT22;19769;48.150;16.306;2023-02-28T16:18:27;8.20;53.10
33428;DHT22;19769;48.150;16.306;2023-02-28T16:20:53;8.00;53.40
33428;DHT22;19769;48.150;16.306;2023-02-28T16:23:18;7.70;54.10
33428;DHT22;19769;48.150;16.306;2023-02-28T16:25:44;7.60;54.70
33428;DHT22;19769;48.150;16.306;2023-02-28T16:28:15;7.40;54.80
33428;DHT22;19769;48.150;16.306;2023-02-28T16:30:43;7.30;55.40
33428;DHT22;19769;48.150;16.306;2023-02-28T16:33:08;7.30;55.70
33428;DHT22;19769;48.150;16.306;2023-02-28T16:35:34;7.20;55.80
33428;DHT22;19769;48.150;16.306;2023-02-28T16:38:00;7.20;56.10
33428;DHT22;19769;48.150;16.306;2023-02-28T16:40:27;7.10;56.20
33428;DHT22;19769;48.150;16.306;2023-02-28T16:42:55;7.00;56.30
33428;DHT22;19769;48.150;16.306;2023-02-28T16:45:30;7.00;57.00
33428;DHT22;19769;48.150;16.306;2023-02-28T16:47:59;6.90;57.30
33428;DHT22;19769;48.150;16.306;2023-02-28T16:50:26;6.90;57.80
33428;DHT22;19769;48.150;16.306;2023-02-28T16:52:54;6.90;57.80
33428;DHT22;19769;48.150;16.306;2023-02-28T16:55:20;6.80;58.10
33428;DHT22;19769;48.150;16.306;2023-02-28T16:57:50;6.80;58.10
33428;DHT22;19769;48.150;16.306;2023-02-28T17:00:18;6.80;58.10
33428;DHT22;19769;48.150;16.306;2023-02-28T17:02:44;6.80;58.00
33428;DHT22;19769;48.150;16.306;2023-02-28T17:05:13;6.80;58.00
33428;DHT22;19769;48.150;16.306;2023-02-28T17:07:41;6.70;58.20
33428;DHT22;19769;48.150;16.306;2023-02-28T17:10:10;6.70;58.70
33428;DHT22;19769;48.150;16.306;2023-02-28T17:12:38;6.70;58.80
33428;DHT22;19769;48.150;16.306;2023-02-28T17:15:04;6.60;58.70
33428;DHT22;19769;48.150;16.306;2023-02-28T17:17:31;6.60;58.90
33428;DHT22;19769;48.150;16.306;2023-02-28T17:19:58;6.50;59.20
33428;DHT22;19769;48.150;16.306;2023-02-28T17:22:23;6.50;59.70
33428;DHT22;19769;48.150;16.306;2023-02-28T17:24:51;6.50;60.00
33428;DHT22;19769;48.150;16.306;2023-02-28T17:27:20;6.50;59.70
33428;DHT22;19769;48.150;16.306;2023-02-28T17:29:47;6.40;60.10
33428;DHT22;19769;48.150;16.306;2023-02-28T17:32:12;6.40;60.20
33428;DHT22;19769;48.150;16.306;2023-02-28T17:34:38;6.30;60.50
33428;DHT22;19769;48.150;16.306;2023-02-28T17:37:04;6.20;60.90
33428;DHT22;19769;48.150;16.306;2023-02-28T17:39:30;6.20;60.90
33428;DHT22;19769;48.150;16.306;2023-02-28T17:41:57;6.10;61.20
33428;DHT22;19769;48.150;16.306;2023-02-28T17:44:24;6.10;61.50
33428;DHT22;19769;48.150;16.306;2023-02-28T17:46:50;6.00;62.10
33428;DHT22;19769;48.150;16.306;2023-02-28T17:49:17;6.00;62.00
33428;DHT22;19769;48.150;16.306;2023-02-28T17:51:43;6.00;62.30
33428;DHT22;19769;48.150;16.306;2023-02-28T17:54:10;6.00;62.40
33428;DHT22;19769;48.150;16.306;2023-02-28T17:56:36;5.90;62.90
33428;DHT22;19769;48.150;16.306;2023-02-28T17:59:05;5.90;63.30